Time;durP1;ratioP1;P1;durP2;ratioP2;P2;SDS_P1;SDS_P2;PMS_P1;PMS_P2;Temp;Humidity;BMP_temperature;BMP_pressure;BME280_temperature;BME280_humidity;BME280_pressure;Samples;Min_cycle;Max_cycle;Signal;HPM_P1;HPM_P2
2023/07/31 00:00:11;;;;;;;0.82;0.30;;;18.80;99.90;;;;;;5099393;28;20428;-85
2023/07/31 00:02:37;;;;;;;1.08;0.40;;;18.80;99.90;;;;;;5117587;28;20038;-84
2023/07/31 00:05:03;;;;;;;1.05;0.40;;;18.80;99.90;;;;;;5117091;28;20032;-85
2023/07/31 00:07:29;;;;;;;1.23;0.25;;;18.80;99.90;;;;;;5117784;28;20032;-85
2023/07/31 00:09:56;;;;;;;0.70;0.30;;;18.90;99.90;;;;;;5099159;28;20409;-85
2023/07/31 00:12:22;;;;;;;0.60;0.20;;;18.90;99.90;;;;;;5098899;28;20122;-86
2023/07/31 00:14:48;;;;;;;1.05;0.40;;;18.90;99.90;;;;;;5116854;28;20027;-85
2023/07/31 00:17:14;;;;;;;1.45;0.47;;;18.90;99.90;;;;;;5116852;28;20506;-84
2023/07/31 00:19:40;;;;;;;2.00;0.30;;;18.90;99.90;;;;;;5116967;28;20063;-84
2023/07/31 00:22:05;;;;;;;0.95;0.40;;;18.90;99.90;;;;;;5082536;28;20032;-84
2023/07/31 00:24:31;;;;;;;0.77;0.30;;;19.00;99.90;;;;;;5117233;28;20526;-84
2023/07/31 00:26:57;;;;;;;0.60;0.20;;;19.00;99.90;;;;;;5099072;28;20036;-84
2023/07/31 00:29:22;;;;;;;1.08;0.20;;;18.90;99.90;;;;;;5115888;28;20027;-83
2023/07/31 00:31:48;;;;;;;0.90;0.30;;;18.90;99.90;;;;;;5116505;28;20460;-83
2023/07/31 00:34:14;;;;;;;0.90;0.43;;;18.90;99.90;;;;;;5116608;28;20547;-83
2023/07/31 00:36:39;;;;;;;1.95;0.30;;;19.00;99.90;;;;;;5098258;28;20035;-83
2023/07/31 00:39:05;;;;;;;1.35;0.30;;;19.00;99.90;;;;;;5098476;28;20368;-82
2023/07/31 00:41:31;;;;;;;1.30;0.60;;;19.00;99.90;;;;;;5081536;28;20035;-81
2023/07/31 00:43:56;;;;;;;0.75;0.40;;;19.00;99.90;;;;;;5097967;28;20494;-82
2023/07/31 00:46:22;;;;;;;1.75;1.10;;;19.00;99.90;;;;;;5116703;28;20024;-82
2023/07/31 00:48:48;;;;;;;1.52;0.82;;;18.90;99.90;;;;;;5116451;28;20032;-82
2023/07/31 00:51:14;;;;;;;4.20;1.60;;;18.90;99.90;;;;;;5116580;28;20032;-83
2023/07/31 00:53:41;;;;;;;4.95;2.13;;;18.80;99.90;;;;;;5116228;28;20048;-81
2023/07/31 00:56:07;;;;;;;6.38;2.50;;;18.70;99.90;;;;;;5098159;28;20036;-82
2023/07/31 00:58:33;;;;;;;6.47;3.20;;;18.70;99.90;;;;;;5116714;28;20088;-82
2023/07/31 01:00:58;;;;;;;11.57;3.53;;;18.70;99.90;;;;;;5116114;28;20028;-83
2023/07/31 01:03:24;;;;;;;6.50;2.92;;;18.60;99.90;;;;;;5082039;28;20035;-81
2023/07/31 01:05:59;;;;;;;9.98;4.40;;;18.60;99.90;;;;;;5116149;28;20511;-82
2023/07/31 01:08:42;;;;;;;12.95;4.88;;;18.60;99.90;;;;;;5116223;28;20031;-82
2023/07/31 01:11:17;;;;;;;17.90;6.95;;;18.60;99.90;;;;;;5116313;28;20082;-82
2023/07/31 01:13:44;;;;;;;22.25;7.43;;;18.50;99.90;;;;;;5115806;28;20032;-82
2023/07/31 01:16:10;;;;;;;25.15;8.82;;;18.50;99.90;;;;;;5115584;28;20034;-82
2023/07/31 01:18:35;;;;;;;23.17;8.65;;;18.50;99.90;;;;;;5116113;28;20507;-81
2023/07/31 01:21:32;;;;;;;22.67;8.15;;;18.40;99.90;;;;;;5097420;28;20028;-82
2023/07/31 01:24:19;;;;;;;26.15;7.90;;;18.40;99.90;;;;;;5115979;28;20023;-83
2023/07/31 01:26:55;;;;;;;24.55;8.90;;;18.30;99.90;;;;;;5097659;28;20111;-83
2023/07/31 01:29:30;;;;;;;23.30;7.75;;;18.20;99.90;;;;;;5116183;28;20125;-82
2023/07/31 01:32:01;;;;;;;21.52;8.00;;;18.20;99.90;;;;;;5098124;28;20406;-81
2023/07/31 01:34:27;;;;;;;23.63;8.27;;;18.20;99.90;;;;;;5115477;28;20031;-83
2023/07/31 01:36:52;;;;;;;22.63;7.85;;;18.20;99.90;;;;;;5115969;28;20034;-82
2023/07/31 01:39:20;;;;;;;21.80;8.35;;;18.20;99.90;;;;;;5115732;28;20461;-82
2023/07/31 01:41:46;;;;;;;19.77;7.50;;;18.20;99.90;;;;;;5097121;28;20031;-82
2023/07/31 01:44:12;;;;;;;23.25;7.63;;;18.20;99.90;;;;;;5115545;28;20031;-82
2023/07/31 01:46:37;;;;;;;21.95;8.13;;;18.10;99.90;;;;;;5115575;28;20440;-83
2023/07/31 01:49:05;;;;;;;27.42;7.65;;;18.20;99.90;;;;;;5115483;28;20028;-82
2023/07/31 01:51:33;;;;;;;23.30;8.32;;;18.10;99.90;;;;;;5114895;28;20467;-81
2023/07/31 01:54:00;;;;;;;22.55;7.25;;;18.20;99.90;;;;;;5115216;28;20491;-82
2023/07/31 01:56:25;;;;;;;24.98;7.70;;;18.10;99.90;;;;;;5114806;28;20491;-83
2023/07/31 01:58:51;;;;;;;26.40;9.07;;;18.20;99.90;;;;;;5096838;28;20027;-83
2023/07/31 02:01:17;;;;;;;24.27;7.38;;;18.10;99.90;;;;;;5115198;28;20020;-82
2023/07/31 02:03:42;;;;;;;21.83;7.75;;;18.10;99.90;;;;;;5097107;28;20059;-84
2023/07/31 02:06:08;;;;;;;24.67;7.15;;;18.10;99.90;;;;;;5114299;28;20090;-83
2023/07/31 02:08:33;;;;;;;27.88;7.80;;;18.10;99.90;;;;;;5114838;28;20081;-83
2023/07/31 02:11:00;;;;;;;24.17;8.27;;;18.10;99.90;;;;;;5115183;28;20098;-83
2023/07/31 02:13:25;;;;;;;24.30;8.23;;;18.10;99.90;;;;;;5115059;28;20043;-84
2023/07/31 02:15:51;;;;;;;25.10;7.97;;;18.10;99.90;;;;;;5114869;28;20122;-80
2023/07/31 02:18:17;;;;;;;22.25;7.68;;;18.00;99.90;;;;;;5114972;28;20032;-81
2023/07/31 02:20:43;;;;;;;19.52;7.18;;;18.00;99.90;;;;;;5114615;28;20380;-83
2023/07/31 02:23:09;;;;;;;19.13;6.75;;;18.00;99.90;;;;;;5114875;28;20476;-84
2023/07/31 02:25:34;;;;;;;17.55;7.28;;;18.00;99.90;;;;;;5096432;28;20460;-82
2023/07/31 02:28:00;;;;;;;24.42;7.72;;;18.00;99.90;;;;;;5114280;28;20032;-81
2023/07/31 02:30:26;;;;;;;21.52;7.43;;;18.00;99.90;;;;;;5096566;28;20038;-82
2023/07/31 02:32:51;;;;;;;18.23;6.57;;;18.00;99.90;;;;;;5114897;28;20035;-84
2023/07/31 02:35:18;;;;;;;18.27;7.65;;;17.90;99.90;;;;;;5114159;28;20031;-85
2023/07/31 02:37:44;;;;;;;18.92;7.13;;;17.90;99.90;;;;;;5079363;28;20035;-83
2023/07/31 02:40:10;;;;;;;20.77;7.10;;;17.80;99.90;;;;;;5114352;28;20027;-82
2023/07/31 02:42:35;;;;;;;20.27;7.65;;;17.80;99.90;;;;;;5096765;28;20107;-82
2023/07/31 02:45:01;;;;;;;21.73;7.25;;;17.70;99.90;;;;;;5114029;28;20127;-81
2023/07/31 02:47:27;;;;;;;18.33;6.47;;;17.70;99.90;;;;;;5114328;28;20034;-81
2023/07/31 02:49:52;;;;;;;18.42;6.85;;;17.70;99.90;;;;;;5114260;28;20028;-81
2023/07/31 02:52:18;;;;;;;22.23;7.10;;;17.70;99.90;;;;;;5095514;28;20063;-81
2023/07/31 02:54:44;;;;;;;26.48;7.97;;;17.70;99.90;;;;;;5114420;28;20460;-81
2023/07/31 02:57:09;;;;;;;24.77;7.70;;;17.80;99.90;;;;;;5096132;28;20024;-81
2023/07/31 02:59:35;;;;;;;19.80;6.70;;;17.80;99.90;;;;;;5095964;28;20077;-81
2023/07/31 03:02:00;;;;;;;20.05;7.20;;;17.80;99.90;;;;;;5095905;28;20034;-83
2023/07/31 03:04:26;;;;;;;19.35;6.97;;;17.70;99.90;;;;;;5114274;28;20035;-81
2023/07/31 03:06:52;;;;;;;21.05;6.45;;;17.80;99.90;;;;;;5113665;28;20059;-82
2023/07/31 03:09:17;;;;;;;21.90;7.55;;;17.80;99.90;;;;;;5114285;28;20353;-82
2023/07/31 03:11:43;;;;;;;22.10;6.97;;;17.80;99.90;;;;;;5114468;28;20066;-83
2023/07/31 03:14:09;;;;;;;28.77;7.32;;;17.80;99.90;;;;;;5096011;28;20044;-82
2023/07/31 03:16:34;;;;;;;27.23;8.40;;;17.90;99.90;;;;;;5113738;28;20106;-82
2023/07/31 03:19:00;;;;;;;22.05;6.65;;;17.90;99.90;;;;;;5114055;28;20494;-80
2023/07/31 03:21:25;;;;;;;24.42;7.72;;;17.90;99.90;;;;;;5095885;28;20039;-82
2023/07/31 03:23:51;;;;;;;25.60;7.47;;;17.90;99.90;;;;;;5114114;28;20035;-82
2023/07/31 03:26:16;;;;;;;25.05;7.55;;;17.90;99.90;;;;;;5096209;28;20039;-82
2023/07/31 03:28:42;;;;;;;22.10;7.68;;;17.90;99.90;;;;;;5096065;28;20032;-81
2023/07/31 03:31:08;;;;;;;22.33;7.07;;;17.90;99.90;;;;;;5114382;28;20080;-81
2023/07/31 03:33:34;;;;;;;19.55;7.32;;;17.90;99.90;;;;;;5095427;28;20126;-82
2023/07/31 03:36:00;;;;;;;24.17;6.57;;;17.90;99.90;;;;;;5113510;28;20043;-82
2023/07/31 03:38:25;;;;;;;17.35;6.68;;;17.80;99.90;;;;;;5114150;28;20035;-83
2023/07/31 03:40:51;;;;;;;24.35;7.30;;;17.80;99.90;;;;;;5113784;28;20471;-82
2023/07/31 03:43:17;;;;;;;20.35;6.68;;;17.80;99.90;;;;;;5114044;28;20042;-82
2023/07/31 03:45:42;;;;;;;20.60;6.68;;;17.80;99.90;;;;;;5113781;28;20101;-82
2023/07/31 03:48:08;;;;;;;19.38;6.45;;;17.90;99.90;;;;;;5114042;28;20428;-83
2023/07/31 03:50:34;;;;;;;21.65;6.70;;;17.90;99.90;;;;;;5113683;28;20467;-82
2023/07/31 03:53:00;;;;;;;22.40;6.65;;;17.90;99.90;;;;;;5113685;28;20040;-83
2023/07/31 03:55:25;;;;;;;20.33;6.35;;;17.90;99.90;;;;;;5113735;28;20502;-83
2023/07/31 03:57:51;;;;;;;17.92;5.70;;;17.90;99.90;;;;;;5095439;28;20072;-82
2023/07/31 04:00:17;;;;;;;18.40;6.40;;;17.90;99.90;;;;;;5113230;28;20073;-83
2023/07/31 04:02:42;;;;;;;23.33;7.53;;;17.90;99.90;;;;;;5113450;28;20039;-84
2023/07/31 04:05:08;;;;;;;15.32;5.88;;;17.90;99.90;;;;;;5114958;28;20030;-83
2023/07/31 04:07:34;;;;;;;23.63;7.57;;;17.90;99.90;;;;;;5117358;28;20529;-83
2023/07/31 04:10:00;;;;;;;18.17;6.65;;;17.90;99.90;;;;;;5117010;28;20032;-83
2023/07/31 04:12:26;;;;;;;19.35;6.18;;;17.90;99.90;;;;;;5117190;28;20036;-83
2023/07/31 04:14:51;;;;;;;22.92;5.95;;;17.90;99.90;;;;;;5117167;28;20360;-83
2023/07/31 04:17:20;;;;;;;18.33;5.80;;;17.80;99.90;;;;;;5117275;28;20107;-83
2023/07/31 04:19:45;;;;;;;18.52;6.72;;;17.80;99.90;;;;;;5116989;28;20491;-83
2023/07/31 04:22:11;;;;;;;18.67;6.47;;;17.90;99.90;;;;;;5117484;28;20131;-83
2023/07/31 04:24:37;;;;;;;22.73;7.03;;;17.80;99.90;;;;;;5117283;28;20028;-83
2023/07/31 04:27:03;;;;;;;19.65;6.28;;;17.90;99.90;;;;;;5116691;28;20028;-82
2023/07/31 04:29:28;;;;;;;17.50;5.50;;;17.90;99.90;;;;;;5098655;28;20062;-82
2023/07/31 04:31:54;;;;;;;17.58;6.32;;;17.90;99.90;;;;;;5116669;28;20114;-82
2023/07/31 04:34:19;;;;;;;18.92;6.68;;;17.90;99.90;;;;;;5116336;28;20135;-82
2023/07/31 04:36:45;;;;;;;19.23;6.22;;;17.90;99.90;;;;;;5116395;28;20444;-82
2023/07/31 04:39:11;;;;;;;22.75;6.05;;;17.90;99.90;;;;;;5116586;28;20020;-82
2023/07/31 04:41:36;;;;;;;16.15;6.57;;;17.90;99.90;;;;;;5116273;28;20468;-82
2023/07/31 04:44:03;;;;;;;20.70;6.10;;;17.90;99.90;;;;;;5098618;28;20038;-82
2023/07/31 04:46:29;;;;;;;13.70;5.18;;;17.90;99.90;;;;;;5116388;28;20043;-80
2023/07/31 04:48:55;;;;;;;17.60;6.88;;;17.90;99.90;;;;;;5116437;28;20460;-81
2023/07/31 04:51:21;;;;;;;19.77;6.70;;;17.90;99.90;;;;;;5098084;28;20031;-82
2023/07/31 04:53:46;;;;;;;16.08;5.00;;;17.80;99.90;;;;;;5116264;28;20031;-82
2023/07/31 04:56:12;;;;;;;18.02;6.15;;;17.80;99.90;;;;;;5116195;28;20102;-82
2023/07/31 04:58:38;;;;;;;14.13;4.85;;;17.90;99.90;;;;;;5098402;28;20464;-82
2023/07/31 05:01:04;;;;;;;17.27;5.60;;;17.90;99.90;;;;;;5116165;28;20360;-82
2023/07/31 05:03:29;;;;;;;16.80;5.30;;;18.00;99.90;;;;;;5116293;28;20426;-81
2023/07/31 05:05:55;;;;;;;18.17;5.90;;;18.00;99.90;;;;;;5115586;28;20051;-82
2023/07/31 05:08:20;;;;;;;20.23;5.97;;;18.00;99.90;;;;;;5098154;28;20468;-83
2023/07/31 05:10:46;;;;;;;16.35;5.72;;;18.00;99.90;;;;;;5115991;28;20472;-83
2023/07/31 05:13:11;;;;;;;12.88;5.88;;;18.00;99.90;;;;;;5115735;28;20028;-83
2023/07/31 05:15:37;;;;;;;23.15;6.10;;;17.90;99.90;;;;;;5115148;28;20031;-82
2023/07/31 05:18:03;;;;;;;16.30;6.15;;;17.90;99.90;;;;;;5098029;28;20101;-82
2023/07/31 05:20:29;;;;;;;17.30;5.70;;;17.90;99.90;;;;;;5115769;28;20023;-81
2023/07/31 05:22:54;;;;;;;16.88;5.50;;;17.80;99.90;;;;;;5115683;28;20085;-83
2023/07/31 05:25:20;;;;;;;20.08;6.03;;;17.90;99.90;;;;;;5097038;28;20085;-83
2023/07/31 05:27:46;;;;;;;21.08;6.07;;;17.90;99.90;;;;;;5115831;28;20019;-82
2023/07/31 05:30:11;;;;;;;18.08;5.65;;;17.90;99.90;;;;;;5115868;28;20028;-82
2023/07/31 05:32:37;;;;;;;23.08;5.97;;;17.90;99.90;;;;;;5115191;28;20044;-82
2023/07/31 05:35:03;;;;;;;14.52;6.13;;;17.90;99.90;;;;;;5097389;28;20024;-81
2023/07/31 05:37:28;;;;;;;17.77;5.35;;;17.90;99.90;;;;;;5115603;28;20049;-82
2023/07/31 05:39:54;;;;;;;15.45;5.85;;;17.90;99.90;;;;;;5115730;28;20091;-83
2023/07/31 05:42:20;;;;;;;18.98;5.47;;;17.80;99.90;;;;;;5080483;28;20032;-82
2023/07/31 05:44:45;;;;;;;14.30;4.72;;;17.80;99.90;;;;;;5115294;28;20467;-82
2023/07/31 05:47:11;;;;;;;13.30;5.80;;;17.80;99.90;;;;;;5115873;28;20043;-83
2023/07/31 05:49:37;;;;;;;16.90;5.40;;;17.80;99.90;;;;;;5096910;28;20043;-83
2023/07/31 05:52:02;;;;;;;11.75;4.82;;;17.80;99.90;;;;;;5097668;28;20110;-83
2023/07/31 05:54:28;;;;;;;17.15;5.40;;;17.80;99.90;;;;;;5115746;28;20074;-84
2023/07/31 05:56:54;;;;;;;15.80;5.82;;;17.70;99.90;;;;;;5115106;28;20053;-83
2023/07/31 05:59:19;;;;;;;16.88;5.30;;;17.70;99.90;;;;;;5097157;28;20036;-84
2023/07/31 06:01:45;;;;;;;16.58;5.10;;;17.70;99.90;;;;;;5115282;28;20053;-83
2023/07/31 06:04:11;;;;;;;14.65;4.93;;;17.60;99.90;;;;;;5115522;28;20111;-82
2023/07/31 06:06:36;;;;;;;11.77;5.05;;;17.60;99.90;;;;;;5114972;28;20127;-84
2023/07/31 06:09:03;;;;;;;16.35;5.05;;;17.60;99.90;;;;;;5096937;28;20081;-84
2023/07/31 06:11:29;;;;;;;11.75;4.63;;;17.60;99.90;;;;;;5115450;28;20024;-83
2023/07/31 06:13:54;;;;;;;14.30;4.85;;;17.50;99.90;;;;;;5114594;28;20433;-84
2023/07/31 06:16:21;;;;;;;13.45;5.20;;;17.50;99.90;;;;;;5115002;28;20035;-83
2023/07/31 06:18:47;;;;;;;15.75;5.18;;;17.60;99.90;;;;;;5097064;28;20028;-83
2023/07/31 06:21:13;;;;;;;10.50;4.60;;;17.60;99.90;;;;;;5115019;28;20080;-81
2023/07/31 06:23:38;;;;;;;13.88;4.90;;;17.60;99.90;;;;;;5114690;28;20403;-80
2023/07/31 06:26:04;;;;;;;8.93;4.28;;;17.60;99.90;;;;;;5115147;28;20032;-82
2023/07/31 06:28:31;;;;;;;11.18;4.85;;;17.70;99.90;;;;;;5096132;28;20497;-81
2023/07/31 06:30:57;;;;;;;11.07;4.45;;;17.70;99.90;;;;;;5114569;28;20383;-81
2023/07/31 06:33:23;;;;;;;9.73;4.28;;;17.70;99.90;;;;;;5096186;28;20050;-82
2023/07/31 06:35:49;;;;;;;9.13;4.18;;;17.70;99.90;;;;;;5096647;28;20027;-82
2023/07/31 06:38:15;;;;;;;11.50;4.30;;;17.70;99.90;;;;;;5114366;28;20480;-82
2023/07/31 06:40:40;;;;;;;7.57;3.95;;;17.80;99.90;;;;;;5114258;28;20035;-82
2023/07/31 06:43:07;;;;;;;10.52;4.10;;;17.70;99.90;;;;;;5095902;28;20039;-80
2023/07/31 06:45:36;;;;;;;9.50;3.85;;;17.70;99.90;;;;;;5114396;28;20074;-83
2023/07/31 06:48:03;;;;;;;9.07;3.60;;;17.80;99.90;;;;;;5115132;28;20414;-81
2023/07/31 06:50:30;;;;;;;9.13;3.70;;;17.80;99.90;;;;;;5114191;28;20383;-82
2023/07/31 06:52:55;;;;;;;9.05;3.70;;;17.80;99.90;;;;;;5114359;28;20039;-83
2023/07/31 06:55:22;;;;;;;8.43;3.42;;;17.80;99.90;;;;;;5114398;28;20038;-83
2023/07/31 06:57:49;;;;;;;8.80;3.20;;;17.80;99.90;;;;;;5114219;28;20059;-82
2023/07/31 07:00:15;;;;;;;6.85;2.97;;;17.80;99.90;;;;;;5114335;28;20024;-81
2023/07/31 07:02:41;;;;;;;7.72;3.28;;;17.80;99.90;;;;;;5096055;28;20031;-82
2023/07/31 07:05:08;;;;;;;5.80;2.70;;;17.80;99.90;;;;;;5114710;28;20031;-83
2023/07/31 07:07:34;;;;;;;6.40;2.72;;;17.90;99.90;;;;;;5092521;28;20090;-81
2023/07/31 07:10:00;;;;;;;5.22;2.28;;;17.90;99.90;;;;;;5093938;28;20059;-81
2023/07/31 07:12:29;;;;;;;4.95;2.20;;;17.90;99.90;;;;;;5094398;28;20341;-83
2023/07/31 07:14:55;;;;;;;7.03;2.17;;;17.80;99.90;;;;;;5094101;28;20025;-81
2023/07/31 07:17:21;;;;;;;3.85;1.95;;;17.80;99.90;;;;;;5094730;28;20020;-82
2023/07/31 07:19:48;;;;;;;3.00;1.50;;;17.80;99.90;;;;;;5092839;28;20035;-81
2023/07/31 07:22:14;;;;;;;3.47;1.67;;;17.90;99.90;;;;;;5092756;28;20020;-82
2023/07/31 07:24:39;;;;;;;3.83;1.60;;;17.90;99.90;;;;;;5092558;28;20153;-83
2023/07/31 07:27:05;;;;;;;4.93;1.30;;;17.90;99.90;;;;;;5093924;28;20032;-82
2023/07/31 07:29:31;;;;;;;2.80;1.08;;;17.90;99.90;;;;;;5094113;28;20043;-83
2023/07/31 07:31:57;;;;;;;3.55;1.25;;;17.90;99.90;;;;;;5094533;28;20113;-82
2023/07/31 07:34:27;;;;;;;1.63;1.15;;;17.90;99.90;;;;;;5092584;28;20097;-83
2023/07/31 07:36:53;;;;;;;1.00;0.57;;;17.90;99.90;;;;;;5094233;28;20081;-82
2023/07/31 07:39:20;;;;;;;2.28;0.80;;;17.90;99.90;;;;;;5095471;28;20095;-82
2023/07/31 07:41:46;;;;;;;1.20;0.70;;;17.90;99.90;;;;;;5098526;28;20031;-82
2023/07/31 07:44:12;;;;;;;1.85;0.88;;;17.90;99.90;;;;;;5100266;28;20032;-82
2023/07/31 07:46:38;;;;;;;1.42;0.80;;;17.90;99.90;;;;;;5105817;28;20036;-80
2023/07/31 07:49:04;;;;;;;1.63;0.50;;;17.90;99.90;;;;;;5110608;28;20491;-82
2023/07/31 07:51:31;;;;;;;2.00;0.80;;;17.90;99.90;;;;;;5109746;28;20044;-81
2023/07/31 07:53:57;;;;;;;3.15;1.30;;;18.00;99.90;;;;;;5107688;28;20051;-81
2023/07/31 07:56:24;;;;;;;1.60;0.70;;;18.00;99.90;;;;;;5092856;28;20032;-81
2023/07/31 07:58:50;;;;;;;1.45;0.70;;;18.00;99.90;;;;;;5107286;28;20029;-81
2023/07/31 08:01:16;;;;;;;1.05;0.50;;;18.00;99.90;;;;;;5106846;28;20476;-83
2023/07/31 08:03:41;;;;;;;2.22;0.43;;;18.00;99.90;;;;;;5108239;28;20039;-82
2023/07/31 08:06:09;;;;;;;2.25;0.52;;;18.00;99.90;;;;;;5108095;28;20539;-82
2023/07/31 08:08:37;;;;;;;0.52;0.30;;;18.00;99.90;;;;;;5105357;28;20115;-81
2023/07/31 08:11:03;;;;;;;0.80;0.50;;;18.00;99.90;;;;;;5105571;28;20543;-83
2023/07/31 08:13:29;;;;;;;0.93;0.57;;;18.00;99.90;;;;;;5106487;28;20040;-82
2023/07/31 08:15:54;;;;;;;1.15;0.75;;;18.00;99.90;;;;;;5111754;28;20064;-81
2023/07/31 08:18:20;;;;;;;1.67;0.70;;;18.00;99.90;;;;;;5111249;28;20036;-82
2023/07/31 08:20:46;;;;;;;1.58;0.88;;;18.00;99.90;;;;;;5106666;28;20058;-82
2023/07/31 08:23:12;;;;;;;1.23;0.65;;;18.00;99.90;;;;;;5108159;28;20024;-81
2023/07/31 08:25:38;;;;;;;2.00;0.90;;;18.00;99.90;;;;;;5099843;28;20548;-80
2023/07/31 08:28:05;;;;;;;1.52;0.80;;;18.00;99.90;;;;;;5101589;28;20020;-81
2023/07/31 08:30:31;;;;;;;1.98;1.10;;;18.00;99.90;;;;;;5101769;28;20134;-81
2023/07/31 08:32:56;;;;;;;2.90;1.38;;;18.00;99.90;;;;;;5101816;28;20366;-81
2023/07/31 08:35:24;;;;;;;3.35;1.20;;;18.00;99.90;;;;;;5103203;28;20024;-81
2023/07/31 08:37:49;;;;;;;1.55;1.15;;;18.00;99.90;;;;;;5103383;28;20035;-81
2023/07/31 08:40:15;;;;;;;1.40;1.20;;;18.00;99.90;;;;;;5100852;28;20039;-82
2023/07/31 08:42:46;;;;;;;1.20;1.10;;;18.10;99.90;;;;;;5103546;28;20440;-81
2023/07/31 08:45:19;;;;;;;3.25;1.30;;;18.10;99.90;;;;;;5103823;28;20024;-84
2023/07/31 08:47:54;;;;;;;1.67;1.30;;;18.00;99.90;;;;;;5107984;28;20024;-82
2023/07/31 08:50:21;;;;;;;1.77;1.42;;;18.10;99.90;;;;;;5109416;28;20004;-82
2023/07/31 08:52:48;;;;;;;1.88;1.60;;;18.10;99.90;;;;;;5103308;28;20515;-82
2023/07/31 08:55:14;;;;;;;2.03;1.30;;;18.10;99.90;;;;;;5109121;28;20032;-83
2023/07/31 08:57:41;;;;;;;2.67;1.63;;;18.10;99.90;;;;;;5106033;28;20367;-82
2023/07/31 09:00:09;;;;;;;3.35;1.90;;;18.20;99.90;;;;;;5105009;28;20043;-82
2023/07/31 09:02:41;;;;;;;2.30;1.75;;;18.10;99.90;;;;;;5104679;28;20024;-85
2023/07/31 09:05:07;;;;;;;2.08;1.42;;;18.10;99.90;;;;;;5104908;28;20026;-83
2023/07/31 09:07:35;;;;;;;3.13;1.42;;;18.10;99.90;;;;;;5114134;28;20131;-84
2023/07/31 09:10:02;;;;;;;2.13;1.92;;;18.10;99.90;;;;;;5130693;28;20100;-83
2023/07/31 09:12:28;;;;;;;2.33;1.90;;;18.10;99.90;;;;;;5129165;28;20031;-83
2023/07/31 09:14:53;;;;;;;2.20;2.00;;;18.10;99.90;;;;;;5127331;28;20032;-83
2023/07/31 09:17:34;;;;;;;2.40;1.80;;;18.10;99.90;;;;;;5110915;28;20447;-83
2023/07/31 09:20:25;;;;;;;2.30;2.10;;;18.00;99.90;;;;;;5125867;28;20023;-83
2023/07/31 09:22:51;;;;;;;2.30;2.00;;;18.10;99.90;;;;;;5102041;28;20403;-85
2023/07/31 09:25:18;;;;;;;2.80;2.47;;;18.10;99.90;;;;;;5107503;28;20372;-83
2023/07/31 09:27:47;;;;;;;3.40;2.20;;;18.10;99.90;;;;;;5122397;28;20028;-82
2023/07/31 09:30:13;;;;;;;4.07;2.58;;;18.10;99.90;;;;;;5122471;28;20023;-84
2023/07/31 09:32:39;;;;;;;3.35;2.80;;;18.10;99.90;;;;;;5123716;28;20042;-82
2023/07/31 09:35:21;;;;;;;4.35;3.35;;;18.10;99.90;;;;;;5104406;28;20031;-82
2023/07/31 09:37:51;;;;;;;5.28;3.17;;;18.10;99.90;;;;;;5103647;28;20368;-83
2023/07/31 09:40:34;;;;;;;4.20;3.38;;;18.10;99.90;;;;;;5119338;28;20035;-82
2023/07/31 09:43:02;;;;;;;4.78;3.72;;;18.10;99.90;;;;;;5099804;28;20490;-83
2023/07/31 09:45:28;;;;;;;3.72;3.33;;;18.20;99.90;;;;;;5120065;28;20028;-83
2023/07/31 09:47:55;;;;;;;4.68;4.15;;;18.10;99.90;;;;;;5120939;28;20055;-83
2023/07/31 09:50:22;;;;;;;6.80;4.20;;;18.10;99.90;;;;;;5122365;28;20051;-82
2023/07/31 09:52:48;;;;;;;5.88;4.03;;;18.10;99.90;;;;;;5125224;28;20051;-85
2023/07/31 09:55:14;;;;;;;7.05;4.30;;;18.20;99.90;;;;;;5123320;28;20035;-82
2023/07/31 09:57:44;;;;;;;6.80;5.22;;;18.20;99.90;;;;;;5121292;28;20484;-84
2023/07/31 10:00:10;;;;;;;6.80;4.88;;;18.20;99.90;;;;;;5120626;28;20434;-84
2023/07/31 10:02:37;;;;;;;6.60;4.47;;;18.20;99.90;;;;;;5121603;28;20031;-82
2023/07/31 10:05:04;;;;;;;8.70;5.20;;;18.20;99.90;;;;;;5121144;28;20384;-85
2023/07/31 10:07:31;;;;;;;9.32;5.50;;;18.20;99.90;;;;;;5121762;28;20052;-82
2023/07/31 10:10:00;;;;;;;8.45;5.40;;;18.20;99.90;;;;;;5123510;28;20049;-86
2023/07/31 10:12:30;;;;;;;8.95;5.85;;;18.20;99.90;;;;;;5125047;28;20049;-84
2023/07/31 10:14:56;;;;;;;6.28;4.88;;;18.20;99.90;;;;;;5124041;28;20031;-81
2023/07/31 10:17:22;;;;;;;8.43;5.28;;;18.30;99.90;;;;;;5123415;28;20036;-83
2023/07/31 10:19:49;;;;;;;8.27;4.90;;;18.20;99.90;;;;;;5111254;28;20032;-81
2023/07/31 10:22:15;;;;;;;8.65;5.53;;;18.20;99.90;;;;;;5098806;22;20108;-84
2023/07/31 10:24:46;;;;;;;9.65;5.72;;;18.30;99.90;;;;;;5058806;28;20034;-84
2023/07/31 10:27:12;;;;;;;7.53;5.30;;;18.30;99.90;;;;;;5063915;28;20443;-83
2023/07/31 10:29:43;;;;;;;9.77;5.47;;;18.40;99.90;;;;;;5060310;28;20112;-84
2023/07/31 10:32:11;;;;;;;8.15;6.45;;;18.40;99.90;;;;;;5052857;28;20032;-83
2023/07/31 10:34:39;;;;;;;9.07;5.93;;;18.50;99.90;;;;;;5054536;28;20029;-85
2023/07/31 10:37:25;;;;;;;10.23;6.47;;;18.50;99.90;;;;;;5059796;28;20025;-82
2023/07/31 10:40:01;;;;;;;11.10;6.35;;;18.50;99.90;;;;;;5063154;28;20033;-84
2023/07/31 10:42:35;;;;;;;10.43;6.53;;;18.50;99.90;;;;;;5062477;28;20146;-81
2023/07/31 10:45:11;;;;;;;10.77;6.15;;;18.50;99.90;;;;;;5049263;28;20396;-80
2023/07/31 10:47:43;;;;;;;7.93;6.20;;;18.50;99.90;;;;;;5059939;28;20051;-85
2023/07/31 10:50:23;;;;;;;8.15;5.80;;;18.40;99.90;;;;;;5063519;28;20033;-85
2023/07/31 10:52:57;;;;;;;9.38;6.05;;;18.50;99.90;;;;;;5064028;28;20032;-85
2023/07/31 10:55:31;;;;;;;11.43;6.18;;;18.50;99.90;;;;;;5060466;28;20025;-82
2023/07/31 10:58:11;;;;;;;10.55;6.47;;;18.50;99.90;;;;;;5052593;28;20052;-83
2023/07/31 11:00:42;;;;;;;11.73;6.30;;;18.50;99.90;;;;;;5057379;28;20009;-86
2023/07/31 11:03:13;;;;;;;9.45;5.40;;;18.60;99.90;;;;;;5062564;28;20037;-83
2023/07/31 11:05:55;;;;;;;11.90;6.60;;;18.60;99.90;;;;;;5066376;28;20038;-85
2023/07/31 11:08:23;;;;;;;11.20;5.80;;;18.60;99.90;;;;;;5064786;28;20447;-85
2023/07/31 11:11:02;;;;;;;8.90;6.10;;;18.70;99.90;;;;;;5061446;28;20029;-86
2023/07/31 11:13:32;;;;;;;8.82;6.30;;;18.70;99.90;;;;;;5066074;28;20029;-83
2023/07/31 11:15:58;;;;;;;8.48;5.63;;;18.70;99.90;;;;;;5069475;28;20045;-83
2023/07/31 11:18:25;;;;;;;9.23;5.15;;;18.70;99.90;;;;;;5061171;28;20017;-81
2023/07/31 11:20:51;;;;;;;6.43;5.25;;;18.70;99.90;;;;;;5052447;28;20076;-84
2023/07/31 11:23:17;;;;;;;8.75;6.10;;;18.70;99.90;;;;;;5051260;28;20046;-82
2023/07/31 11:25:43;;;;;;;8.65;5.95;;;18.70;99.90;;;;;;5069182;28;20017;-82
2023/07/31 11:28:14;;;;;;;6.35;5.40;;;18.70;99.90;;;;;;5050636;28;20045;-83
2023/07/31 11:30:41;;;;;;;6.85;5.85;;;18.70;99.90;;;;;;5047091;28;20472;-84
2023/07/31 11:33:08;;;;;;;6.63;5.63;;;18.70;99.90;;;;;;5039394;28;20033;-87
2023/07/31 11:35:41;;;;;;;8.75;6.03;;;18.70;99.90;;;;;;5040929;28;20112;-85
2023/07/31 11:38:07;;;;;;;;;;;18.70;99.90;;;;;;5045864;28;20022;-86
2023/07/31 11:40:44;;;;;;;6.13;4.85;;;18.70;99.90;;;;;;5041903;28;20468;-85
2023/07/31 11:43:13;;;;;;;8.73;5.55;;;18.70;99.90;;;;;;5040375;28;20104;-85
2023/07/31 11:45:40;;;;;;;10.90;5.18;;;18.70;99.90;;;;;;5043426;28;20028;-87
2023/07/31 11:48:06;;;;;;;6.55;4.50;;;18.80;99.90;;;;;;5045247;28;20034;-85
2023/07/31 11:50:35;;;;;;;7.20;4.95;;;18.80;99.90;;;;;;5044870;28;20048;-84
2023/07/31 11:53:06;;;;;;;6.93;4.72;;;18.80;99.90;;;;;;5042379;28;20049;-87
2023/07/31 11:55:32;;;;;;;9.07;5.28;;;18.90;99.90;;;;;;5044251;28;20056;-85
2023/07/31 11:57:59;;;;;;;10.70;4.72;;;18.90;99.90;;;;;;5040499;28;20068;-87
2023/07/31 12:00:25;;;;;;;6.88;4.68;;;18.90;99.90;;;;;;5039399;28;20087;-87
2023/07/31 12:02:51;;;;;;;7.93;4.85;;;18.90;99.90;;;;;;5043879;28;20041;-85
2023/07/31 12:05:17;;;;;;;5.55;4.57;;;18.90;99.90;;;;;;5042971;28;20029;-84
2023/07/31 12:07:48;;;;;;;6.22;3.83;;;18.90;99.90;;;;;;5040659;28;20385;-89
2023/07/31 12:10:28;;;;;;;6.43;4.13;;;18.90;99.90;;;;;;5042107;28;20442;-88
2023/07/31 12:13:05;;;;;;;8.45;4.50;;;19.00;99.90;;;;;;5041885;28;20068;-86
2023/07/31 12:15:39;;;;;;;6.40;3.78;;;18.90;99.90;;;;;;5040041;28;20060;-83
2023/07/31 12:18:06;;;;;;;5.75;4.00;;;19.00;99.90;;;;;;5037610;28;20034;-82
2023/07/31 12:20:33;;;;;;;5.35;3.78;;;19.00;99.90;;;;;;5037054;28;20028;-84
2023/07/31 12:22:59;;;;;;;5.93;3.58;;;19.00;99.90;;;;;;5036919;28;20093;-88
2023/07/31 12:25:32;;;;;;;5.00;3.72;;;19.00;99.90;;;;;;5035874;28;20033;-86
2023/07/31 12:28:03;;;;;;;4.97;3.60;;;19.00;99.90;;;;;;5037071;28;20034;-83
2023/07/31 12:30:32;;;;;;;5.82;3.70;;;19.10;99.90;;;;;;5038048;28;20044;-82
2023/07/31 12:32:57;;;;;;;5.72;3.70;;;19.10;99.90;;;;;;5037340;28;20498;-83
2023/07/31 12:35:23;;;;;;;6.45;3.92;;;19.10;99.90;;;;;;5036389;28;20033;-84
2023/07/31 12:37:49;;;;;;;7.05;4.45;;;19.00;99.90;;;;;;5036906;28;20029;-85
2023/07/31 12:40:14;;;;;;;7.45;4.53;;;19.10;99.90;;;;;;5037530;28;20039;-87
2023/07/31 12:42:41;;;;;;;8.35;4.55;;;19.10;99.90;;;;;;5037163;28;20087;-85